TimeCST,TemperatureF,Dew PointF,Humidity,Sea Level PressureIn,VisibilityMPH,Wind Direction,Wind SpeedMPH,Gust SpeedMPH,PrecipitationIn,Events,Conditions,WindDirDegrees,DateUTC
12:12 AM,30.2,30.2,100,29.65,3.0,ENE,8.1,-,N/A,Snow,Light Snow,60,2013-12-03 06:12:00
12:33 AM,30.2,30.2,100,29.65,2.5,ENE,5.8,-,N/A,Snow,Light Snow,70,2013-12-03 06:33:00
12:52 AM,30.2,30.2,100,29.66,3.0,ENE,6.9,-,N/A,Snow,Light Snow,70,2013-12-03 06:52:00
1:12 AM,30.2,30.2,100,29.67,3.0,ENE,4.6,-,N/A,Snow,Light Snow,60,2013-12-03 07:12:00
1:33 AM,30.2,30.2,100,29.67,2.0,NE,5.8,-,N/A,Snow,Light Snow,50,2013-12-03 07:33:00
1:53 AM,30.2,30.2,100,29.67,2.0,ENE,5.8,-,N/A,Snow,Light Snow,60,2013-12-03 07:53:00
2:13 AM,30.2,30.2,100,29.67,2.5,NE,4.6,-,N/A,Snow,Light Snow,50,2013-12-03 08:13:00
2:33 AM,30.2,30.2,100,29.68,4.0,NE,5.8,-,N/A,Snow,Light Snow,50,2013-12-03 08:33:00
2:53 AM,30.2,28.4,93,29.67,4.0,ENE,6.9,-,N/A,Snow,Light Snow,60,2013-12-03 08:53:00
3:13 AM,30.2,28.4,93,29.68,5.0,ENE,5.8,-,N/A,Snow,Light Snow,70,2013-12-03 09:13:00
3:32 AM,30.2,28.4,93,29.68,7.0,ENE,6.9,-,N/A,Snow,Light Snow,70,2013-12-03 09:32:00
3:52 AM,30.2,28.4,93,29.69,7.0,ENE,5.8,-,N/A,,Overcast,60,2013-12-03 09:52:00
4:13 AM,30.2,28.4,93,29.70,10.0,ENE,5.8,-,N/A,,Overcast,70,2013-12-03 10:13:00
4:33 AM,30.2,28.4,93,29.70,10.0,ENE,5.8,-,N/A,,Overcast,60,2013-12-03 10:33:00
4:53 AM,30.2,28.4,93,29.70,10.0,ENE,4.6,-,N/A,,Overcast,60,2013-12-03 10:53:00
5:13 AM,30.2,28.4,93,29.70,10.0,NE,5.8,-,N/A,,Overcast,50,2013-12-03 11:13:00
5:33 AM,30.2,28.4,93,29.70,10.0,NE,3.5,-,N/A,,Overcast,50,2013-12-03 11:33:00
5:52 AM,30.2,28.4,93,29.70,10.0,ENE,5.8,-,N/A,,Overcast,60,2013-12-03 11:52:00
6:13 AM,30.2,28.4,93,29.70,10.0,ENE,8.1,-,N/A,,Overcast,70,2013-12-03 12:13:00
6:32 AM,30.2,28.4,93,29.71,7.0,ENE,6.9,-,N/A,,Overcast,60,2013-12-03 12:32:00
6:53 AM,30.2,28.4,93,29.71,7.0,ENE,5.8,-,N/A,,Overcast,60,2013-12-03 12:53:00
7:13 AM,30.2,28.4,93,29.71,7.0,NE,6.9,-,N/A,,Overcast,50,2013-12-03 13:13:00
7:33 AM,30.2,28.4,93,29.71,5.0,ENE,8.1,-,N/A,,Overcast,70,2013-12-03 13:33:00
7:53 AM,30.2,28.4,93,29.72,4.0,ENE,6.9,-,N/A,,Overcast,60,2013-12-03 13:53:00
8:13 AM,30.2,30.2,100,29.73,4.0,ENE,8.1,-,N/A,,Overcast,70,2013-12-03 14:13:00
8:33 AM,30.2,30.2,100,29.74,4.0,ENE,5.8,-,N/A,,Overcast,60,2013-12-03 14:33:00
8:52 AM,30.2,30.2,100,29.74,3.0,ENE,6.9,-,N/A,,Overcast,70,2013-12-03 14:52:00
9:13 AM,30.2,30.2,100,29.74,3.0,ENE,8.1,-,N/A,,Overcast,60,2013-12-03 15:13:00
9:32 AM,30.2,30.2,100,29.75,4.0,ENE,6.9,-,N/A,,Overcast,60,2013-12-03 15:32:00
9:52 AM,30.2,30.2,100,29.76,5.0,East,6.9,-,N/A,,Overcast,80,2013-12-03 15:52:00
10:13 AM,30.2,30.2,100,29.77,4.0,ENE,5.8,-,N/A,,Overcast,70,2013-12-03 16:13:00
10:31 AM,30.2,30.2,100,29.78,4.0,ENE,6.9,-,N/A,,Overcast,70,2013-12-03 16:31:00
10:53 AM,30.2,30.2,100,29.78,2.5,ENE,6.9,-,N/A,,Overcast,70,2013-12-03 16:53:00
11:12 AM,30.2,30.2,100,29.77,1.8,East,8.1,-,N/A,,Overcast,80,2013-12-03 17:12:00
11:33 AM,30.2,30.2,100,29.77,2.0,East,8.1,-,N/A,,Overcast,80,2013-12-03 17:33:00
11:53 AM,30.2,30.2,100,29.77,3.0,East,8.1,-,N/A,,Overcast,80,2013-12-03 17:53:00
12:13 PM,30.2,30.2,100,29.76,2.5,ENE,8.1,-,N/A,,Overcast,70,2013-12-03 18:13:00
12:33 PM,32.0,30.2,93,29.76,2.5,East,6.9,-,N/A,,Overcast,80,2013-12-03 18:33:00
12:52 PM,32.0,30.2,93,29.76,2.5,East,8.1,-,N/A,,Overcast,80,2013-12-03 18:52:00
1:13 PM,30.2,30.2,100,29.76,2.5,East,6.9,-,N/A,,Overcast,80,2013-12-03 19:13:00
1:33 PM,30.2,30.2,100,29.76,2.5,East,8.1,-,N/A,,Overcast,80,2013-12-03 19:33:00
1:53 PM,30.2,30.2,100,29.76,2.5,East,10.4,16.1,N/A,,Overcast,80,2013-12-03 19:53:00
2:12 PM,30.2,30.2,100,29.77,3.0,East,9.2,-,N/A,,Overcast,80,2013-12-03 20:12:00
2:32 PM,30.2,30.2,100,29.77,2.5,East,8.1,-,N/A,,Overcast,80,2013-12-03 20:32:00
2:52 PM,30.2,30.2,100,29.78,1.8,East,12.7,-,N/A,,Overcast,80,2013-12-03 20:52:00
3:13 PM,30.2,30.2,100,29.78,2.5,East,9.2,-,N/A,,Overcast,80,2013-12-03 21:13:00
3:32 PM,30.2,30.2,100,29.78,2.5,East,11.5,-,N/A,,Overcast,80,2013-12-03 21:32:00
3:53 PM,30.2,28.4,93,29.79,2.0,East,8.1,18.4,N/A,,Overcast,80,2013-12-03 21:53:00
4:13 PM,30.2,28.4,93,29.81,2.0,East,10.4,-,N/A,,Overcast,80,2013-12-03 22:13:00
4:33 PM,30.2,28.4,93,29.81,2.5,ENE,6.9,-,N/A,,Overcast,60,2013-12-03 22:33:00
4:53 PM,30.2,28.4,93,29.82,2.5,ENE,11.5,17.3,N/A,,Overcast,70,2013-12-03 22:53:00
5:12 PM,28.4,28.4,100,29.82,2.5,East,9.2,-,N/A,,Overcast,80,2013-12-03 23:12:00
5:32 PM,28.4,28.4,100,29.83,2.5,East,10.4,-,N/A,,Overcast,80,2013-12-03 23:32:00
5:52 PM,28.4,28.4,100,29.83,3.0,East,11.5,-,N/A,,Overcast,80,2013-12-03 23:52:00
6:12 PM,28.4,28.4,100,29.84,3.0,ENE,10.4,-,N/A,,Overcast,70,2013-12-04 00:12:00
6:33 PM,28.4,28.4,100,29.84,2.5,East,10.4,-,N/A,,Overcast,80,2013-12-04 00:33:00
6:52 PM,28.4,28.4,100,29.84,2.5,East,9.2,-,N/A,,Overcast,80,2013-12-04 00:52:00
7:13 PM,28.4,28.4,100,29.85,4.0,East,10.4,-,N/A,,Overcast,80,2013-12-04 01:13:00
7:33 PM,28.4,26.6,93,29.85,4.0,East,10.4,-,N/A,Snow,Light Snow,90,2013-12-04 01:33:00
7:52 PM,28.4,26.6,93,29.84,4.0,East,12.7,17.3,N/A,Snow,Light Snow,90,2013-12-04 01:52:00
8:13 PM,28.4,26.6,93,29.82,4.0,East,16.1,19.6,N/A,Snow,Light Snow,90,2013-12-04 02:13:00
8:33 PM,28.4,26.6,93,29.84,7.0,East,13.8,-,N/A,Snow,Light Snow,90,2013-12-04 02:33:00
8:53 PM,28.4,26.6,93,29.86,10.0,East,11.5,-,N/A,Snow,Light Snow,90,2013-12-04 02:53:00
9:13 PM,28.4,26.6,93,29.87,10.0,East,10.4,-,N/A,,Overcast,90,2013-12-04 03:13:00
9:33 PM,28.4,24.8,86,29.86,10.0,East,9.2,-,N/A,,Overcast,80,2013-12-04 03:33:00
9:51 PM,28.4,26.6,93,29.86,10.0,ENE,6.9,-,N/A,,Overcast,70,2013-12-04 03:51:00
10:13 PM,28.4,26.6,93,29.88,7.0,East,6.9,-,N/A,Snow,Light Snow,80,2013-12-04 04:13:00
10:32 PM,28.4,24.8,86,29.87,10.0,ENE,9.2,17.3,N/A,,Overcast,70,2013-12-04 04:32:00
10:53 PM,28.4,24.8,86,29.86,10.0,East,9.2,-,N/A,,Overcast,80,2013-12-04 04:53:00
11:11 PM,26.6,24.8,93,29.86,10.0,ENE,9.2,16.1,N/A,,Overcast,70,2013-12-04 05:11:00
11:32 PM,26.6,24.8,93,29.85,10.0,East,8.1,17.3,N/A,,Overcast,80,2013-12-04 05:32:00
11:53 PM,26.6,23.0,86,29.86,10.0,ENE,9.2,-,N/A,,Overcast,60,2013-12-04 05:53:00